sensor_id;sensor_type;location;lat;lon;timestamp;P1;durP1;ratioP1;P2;durP2;ratioP2
52816;SDS011;38687;43.330;21.924;2023-03-30T00:01:12;74.72;;;35.33;;
52816;SDS011;38687;43.330;21.924;2023-03-30T00:03:39;67.05;;;34.95;;
52816;SDS011;38687;43.330;21.924;2023-03-30T00:06:06;37.53;;;23.77;;
52816;SDS011;38687;43.330;21.924;2023-03-30T00:08:33;35.75;;;21.17;;
52816;SDS011;38687;43.330;21.924;2023-03-30T00:11:01;41.55;;;24.23;;
52816;SDS011;38687;43.330;21.924;2023-03-30T00:13:28;36.45;;;20.90;;
52816;SDS011;38687;43.330;21.924;2023-03-30T00:15:54;40.80;;;23.23;;
52816;SDS011;38687;43.330;21.924;2023-03-30T00:18:19;43.20;;;23.65;;
52816;SDS011;38687;43.330;21.924;2023-03-30T00:20:48;41.90;;;22.88;;
52816;SDS011;38687;43.330;21.924;2023-03-30T00:23:14;42.60;;;23.48;;
52816;SDS011;38687;43.330;21.924;2023-03-30T00:25:41;40.72;;;24.48;;
52816;SDS011;38687;43.330;21.924;2023-03-30T00:28:07;43.10;;;25.52;;
52816;SDS011;38687;43.330;21.924;2023-03-30T00:30:32;44.50;;;25.13;;
52816;SDS011;38687;43.330;21.924;2023-03-30T00:32:57;45.85;;;26.63;;
52816;SDS011;38687;43.330;21.924;2023-03-30T00:35:26;44.03;;;25.10;;
52816;SDS011;38687;43.330;21.924;2023-03-30T00:37:54;29.75;;;19.27;;
52816;SDS011;38687;43.330;21.924;2023-03-30T00:40:20;25.25;;;15.27;;
52816;SDS011;38687;43.330;21.924;2023-03-30T00:42:47;25.17;;;15.00;;
52816;SDS011;38687;43.330;21.924;2023-03-30T00:48:01;18.85;;;12.57;;
52816;SDS011;38687;43.330;21.924;2023-03-30T00:50:29;19.05;;;12.85;;
52816;SDS011;38687;43.330;21.924;2023-03-30T00:52:59;26.98;;;15.18;;
52816;SDS011;38687;43.330;21.924;2023-03-30T00:55:25;25.30;;;14.63;;
52816;SDS011;38687;43.330;21.924;2023-03-30T00:57:54;23.30;;;14.27;;
52816;SDS011;38687;43.330;21.924;2023-03-30T01:00:20;30.30;;;18.05;;
52816;SDS011;38687;43.330;21.924;2023-03-30T01:03:09;32.75;;;19.67;;
52816;SDS011;38687;43.330;21.924;2023-03-30T01:05:44;29.63;;;19.42;;
52816;SDS011;38687;43.330;21.924;2023-03-30T01:08:10;29.30;;;17.52;;
52816;SDS011;38687;43.330;21.924;2023-03-30T01:10:38;32.78;;;18.10;;
52816;SDS011;38687;43.330;21.924;2023-03-30T01:13:03;25.27;;;16.25;;
52816;SDS011;38687;43.330;21.924;2023-03-30T01:15:30;19.42;;;11.50;;
52816;SDS011;38687;43.330;21.924;2023-03-30T01:43:40;21.90;;;12.20;;
52816;SDS011;38687;43.330;21.924;2023-03-30T01:46:26;23.10;;;13.93;;
52816;SDS011;38687;43.330;21.924;2023-03-30T01:49:01;23.58;;;13.23;;
52816;SDS011;38687;43.330;21.924;2023-03-30T01:51:40;22.58;;;12.68;;
52816;SDS011;38687;43.330;21.924;2023-03-30T01:54:11;21.85;;;12.30;;
52816;SDS011;38687;43.330;21.924;2023-03-30T01:56:44;19.40;;;13.15;;
52816;SDS011;38687;43.330;21.924;2023-03-30T02:01:43;23.05;;;13.40;;
52816;SDS011;38687;43.330;21.924;2023-03-30T02:04:14;17.48;;;11.57;;
52816;SDS011;38687;43.330;21.924;2023-03-30T02:06:41;18.92;;;11.23;;
52816;SDS011;38687;43.330;21.924;2023-03-30T02:09:11;15.77;;;10.10;;
52816;SDS011;38687;43.330;21.924;2023-03-30T02:11:40;18.55;;;10.90;;
52816;SDS011;38687;43.330;21.924;2023-03-30T02:14:07;19.63;;;11.10;;
52816;SDS011;38687;43.330;21.924;2023-03-30T02:16:38;17.30;;;10.07;;
52816;SDS011;38687;43.330;21.924;2023-03-30T02:19:06;19.65;;;11.88;;
52816;SDS011;38687;43.330;21.924;2023-03-30T02:21:32;20.83;;;11.75;;
52816;SDS011;38687;43.330;21.924;2023-03-30T02:23:59;16.67;;;10.63;;
52816;SDS011;38687;43.330;21.924;2023-03-30T02:26:30;20.23;;;12.07;;
52816;SDS011;38687;43.330;21.924;2023-03-30T02:28:56;22.02;;;12.65;;
52816;SDS011;38687;43.330;21.924;2023-03-30T02:31:21;24.60;;;14.18;;
52816;SDS011;38687;43.330;21.924;2023-03-30T02:53:30;23.33;;;13.43;;
52816;SDS011;38687;43.330;21.924;2023-03-30T02:56:12;22.88;;;11.75;;
52816;SDS011;38687;43.330;21.924;2023-03-30T02:58:59;21.73;;;12.63;;
52816;SDS011;38687;43.330;21.924;2023-03-30T03:01:34;22.77;;;13.35;;
52816;SDS011;38687;43.330;21.924;2023-03-30T03:04:02;22.25;;;12.98;;
52816;SDS011;38687;43.330;21.924;2023-03-30T03:06:29;21.17;;;13.18;;
52816;SDS011;38687;43.330;21.924;2023-03-30T03:08:56;20.92;;;13.32;;
52816;SDS011;38687;43.330;21.924;2023-03-30T03:11:22;24.95;;;14.30;;
52816;SDS011;38687;43.330;21.924;2023-03-30T03:13:47;21.95;;;14.00;;
52816;SDS011;38687;43.330;21.924;2023-03-30T03:16:14;21.98;;;12.35;;
52816;SDS011;38687;43.330;21.924;2023-03-30T03:18:40;18.83;;;12.18;;
52816;SDS011;38687;43.330;21.924;2023-03-30T03:21:06;16.80;;;10.32;;
52816;SDS011;38687;43.330;21.924;2023-03-30T03:23:33;19.52;;;10.77;;
52816;SDS011;38687;43.330;21.924;2023-03-30T03:25:59;19.58;;;10.82;;
52816;SDS011;38687;43.330;21.924;2023-03-30T03:28:25;19.38;;;11.45;;
52816;SDS011;38687;43.330;21.924;2023-03-30T03:30:51;20.63;;;11.38;;
52816;SDS011;38687;43.330;21.924;2023-03-30T03:33:17;19.08;;;11.88;;
52816;SDS011;38687;43.330;21.924;2023-03-30T03:35:44;14.27;;;10.27;;
52816;SDS011;38687;43.330;21.924;2023-03-30T03:38:10;16.27;;;10.95;;
52816;SDS011;38687;43.330;21.924;2023-03-30T03:40:36;15.55;;;10.38;;
52816;SDS011;38687;43.330;21.924;2023-03-30T03:43:01;14.45;;;9.25;;
52816;SDS011;38687;43.330;21.924;2023-03-30T03:45:26;14.48;;;9.57;;
52816;SDS011;38687;43.330;21.924;2023-03-30T03:47:52;21.70;;;10.13;;
52816;SDS011;38687;43.330;21.924;2023-03-30T03:50:19;19.33;;;11.60;;
52816;SDS011;38687;43.330;21.924;2023-03-30T03:52:45;26.60;;;13.68;;
52816;SDS011;38687;43.330;21.924;2023-03-30T03:55:12;17.02;;;9.98;;
52816;SDS011;38687;43.330;21.924;2023-03-30T03:57:38;18.05;;;9.57;;
52816;SDS011;38687;43.330;21.924;2023-03-30T04:00:04;15.80;;;9.32;;
52816;SDS011;38687;43.330;21.924;2023-03-30T04:02:39;19.20;;;11.10;;
52816;SDS011;38687;43.330;21.924;2023-03-30T04:05:05;21.30;;;11.82;;
52816;SDS011;38687;43.330;21.924;2023-03-30T04:07:32;17.30;;;10.27;;
52816;SDS011;38687;43.330;21.924;2023-03-30T04:09:59;19.33;;;10.40;;
52816;SDS011;38687;43.330;21.924;2023-03-30T04:12:25;18.08;;;10.65;;
52816;SDS011;38687;43.330;21.924;2023-03-30T04:14:53;19.70;;;11.40;;
52816;SDS011;38687;43.330;21.924;2023-03-30T04:17:18;20.08;;;11.02;;
52816;SDS011;38687;43.330;21.924;2023-03-30T04:19:47;31.85;;;16.73;;
52816;SDS011;38687;43.330;21.924;2023-03-30T04:22:21;23.50;;;14.18;;
52816;SDS011;38687;43.330;21.924;2023-03-30T04:24:48;26.90;;;15.95;;
52816;SDS011;38687;43.330;21.924;2023-03-30T04:27:14;33.65;;;17.42;;
52816;SDS011;38687;43.330;21.924;2023-03-30T04:29:40;32.92;;;16.38;;
52816;SDS011;38687;43.330;21.924;2023-03-30T04:32:08;19.35;;;11.38;;
52816;SDS011;38687;43.330;21.924;2023-03-30T04:34:37;20.67;;;11.05;;
52816;SDS011;38687;43.330;21.924;2023-03-30T04:37:06;17.10;;;10.65;;
52816;SDS011;38687;43.330;21.924;2023-03-30T04:39:35;20.52;;;13.40;;
52816;SDS011;38687;43.330;21.924;2023-03-30T04:42:00;25.60;;;14.40;;
52816;SDS011;38687;43.330;21.924;2023-03-30T04:44:30;28.13;;;15.43;;
52816;SDS011;38687;43.330;21.924;2023-03-30T04:46:56;20.10;;;12.57;;
52816;SDS011;38687;43.330;21.924;2023-03-30T04:49:21;20.65;;;11.65;;
52816;SDS011;38687;43.330;21.924;2023-03-30T04:51:47;18.85;;;11.23;;
52816;SDS011;38687;43.330;21.924;2023-03-30T04:54:12;14.23;;;9.65;;
52816;SDS011;38687;43.330;21.924;2023-03-30T04:56:38;12.63;;;7.43;;
52816;SDS011;38687;43.330;21.924;2023-03-30T04:59:03;15.02;;;8.23;;
52816;SDS011;38687;43.330;21.924;2023-03-30T05:01:29;14.80;;;8.93;;
52816;SDS011;38687;43.330;21.924;2023-03-30T05:03:54;15.05;;;9.57;;
52816;SDS011;38687;43.330;21.924;2023-03-30T05:06:20;16.13;;;10.55;;
52816;SDS011;38687;43.330;21.924;2023-03-30T05:08:45;15.82;;;9.52;;
52816;SDS011;38687;43.330;21.924;2023-03-30T05:11:11;20.35;;;10.32;;
52816;SDS011;38687;43.330;21.924;2023-03-30T05:13:36;14.77;;;8.15;;
52816;SDS011;38687;43.330;21.924;2023-03-30T05:16:02;17.65;;;11.00;;
52816;SDS011;38687;43.330;21.924;2023-03-30T05:18:27;20.67;;;13.43;;
52816;SDS011;38687;43.330;21.924;2023-03-30T05:20:56;32.47;;;23.15;;
52816;SDS011;38687;43.330;21.924;2023-03-30T05:23:22;26.33;;;15.48;;
52816;SDS011;38687;43.330;21.924;2023-03-30T05:25:48;20.40;;;12.38;;
52816;SDS011;38687;43.330;21.924;2023-03-30T05:28:14;19.88;;;10.43;;
52816;SDS011;38687;43.330;21.924;2023-03-30T05:30:42;20.60;;;11.55;;
52816;SDS011;38687;43.330;21.924;2023-03-30T05:33:08;25.13;;;16.17;;
52816;SDS011;38687;43.330;21.924;2023-03-30T05:35:34;23.15;;;14.52;;
52816;SDS011;38687;43.330;21.924;2023-03-30T05:38:00;21.42;;;12.70;;
52816;SDS011;38687;43.330;21.924;2023-03-30T05:40:26;23.92;;;12.65;;
52816;SDS011;38687;43.330;21.924;2023-03-30T05:42:51;26.42;;;14.52;;
52816;SDS011;38687;43.330;21.924;2023-03-30T05:45:16;28.83;;;17.00;;
52816;SDS011;38687;43.330;21.924;2023-03-30T05:47:42;33.75;;;18.85;;
52816;SDS011;38687;43.330;21.924;2023-03-30T05:50:07;33.10;;;18.90;;
52816;SDS011;38687;43.330;21.924;2023-03-30T05:52:33;30.77;;;19.25;;
52816;SDS011;38687;43.330;21.924;2023-03-30T05:54:59;19.67;;;10.90;;
52816;SDS011;38687;43.330;21.924;2023-03-30T05:57:25;21.52;;;12.02;;
52816;SDS011;38687;43.330;21.924;2023-03-30T05:59:50;20.60;;;11.32;;
52816;SDS011;38687;43.330;21.924;2023-03-30T06:02:16;15.40;;;9.60;;
52816;SDS011;38687;43.330;21.924;2023-03-30T06:04:42;11.20;;;8.30;;
52816;SDS011;38687;43.330;21.924;2023-03-30T06:07:07;10.40;;;6.45;;
52816;SDS011;38687;43.330;21.924;2023-03-30T06:09:33;17.02;;;6.53;;
52816;SDS011;38687;43.330;21.924;2023-03-30T06:11:58;16.50;;;7.53;;
52816;SDS011;38687;43.330;21.924;2023-03-30T06:14:24;18.17;;;9.90;;
52816;SDS011;38687;43.330;21.924;2023-03-30T06:16:49;15.13;;;8.10;;
52816;SDS011;38687;43.330;21.924;2023-03-30T06:19:16;12.18;;;7.35;;
52816;SDS011;38687;43.330;21.924;2023-03-30T06:21:41;7.18;;;3.33;;
52816;SDS011;38687;43.330;21.924;2023-03-30T06:24:07;10.02;;;5.85;;
52816;SDS011;38687;43.330;21.924;2023-03-30T06:26:32;11.65;;;6.82;;
52816;SDS011;38687;43.330;21.924;2023-03-30T06:28:58;8.68;;;5.28;;
52816;SDS011;38687;43.330;21.924;2023-03-30T06:31:23;7.75;;;5.20;;
52816;SDS011;38687;43.330;21.924;2023-03-30T06:33:49;4.90;;;4.07;;
52816;SDS011;38687;43.330;21.924;2023-03-30T06:36:15;11.90;;;6.07;;
52816;SDS011;38687;43.330;21.924;2023-03-30T06:38:41;10.95;;;6.10;;
52816;SDS011;38687;43.330;21.924;2023-03-30T06:41:09;14.50;;;7.05;;
52816;SDS011;38687;43.330;21.924;2023-03-30T06:43:36;18.83;;;10.07;;
52816;SDS011;38687;43.330;21.924;2023-03-30T06:46:03;14.82;;;8.95;;
52816;SDS011;38687;43.330;21.924;2023-03-30T06:48:28;8.50;;;4.50;;
52816;SDS011;38687;43.330;21.924;2023-03-30T06:50:54;4.50;;;3.35;;
52816;SDS011;38687;43.330;21.924;2023-03-30T06:53:20;5.57;;;3.50;;
52816;SDS011;38687;43.330;21.924;2023-03-30T06:55:53;6.30;;;3.63;;
52816;SDS011;38687;43.330;21.924;2023-03-30T06:58:20;7.20;;;4.03;;
52816;SDS011;38687;43.330;21.924;2023-03-30T07:00:46;8.43;;;4.07;;
52816;SDS011;38687;43.330;21.924;2023-03-30T07:03:12;7.07;;;3.92;;
52816;SDS011;38687;43.330;21.924;2023-03-30T07:05:37;6.50;;;3.92;;
52816;SDS011;38687;43.330;21.924;2023-03-30T07:08:02;6.75;;;4.38;;
52816;SDS011;38687;43.330;21.924;2023-03-30T07:10:30;10.00;;;7.35;;
52816;SDS011;38687;43.330;21.924;2023-03-30T07:12:56;7.55;;;6.47;;
52816;SDS011;38687;43.330;21.924;2023-03-30T07:15:21;6.85;;;3.70;;
52816;SDS011;38687;43.330;21.924;2023-03-30T07:17:48;8.07;;;6.95;;
52816;SDS011;38687;43.330;21.924;2023-03-30T07:20:14;9.88;;;7.50;;
52816;SDS011;38687;43.330;21.924;2023-03-30T07:22:39;7.13;;;5.28;;
52816;SDS011;38687;43.330;21.924;2023-03-30T07:25:05;8.45;;;4.78;;
52816;SDS011;38687;43.330;21.924;2023-03-30T07:27:32;5.45;;;3.72;;
52816;SDS011;38687;43.330;21.924;2023-03-30T07:30:00;5.45;;;2.30;;
52816;SDS011;38687;43.330;21.924;2023-03-30T07:32:25;4.10;;;2.33;;
52816;SDS011;38687;43.330;21.924;2023-03-30T07:34:51;4.32;;;2.13;;
52816;SDS011;38687;43.330;21.924;2023-03-30T07:37:16;6.78;;;3.53;;
52816;SDS011;38687;43.330;21.924;2023-03-30T07:39:42;5.22;;;2.80;;
52816;SDS011;38687;43.330;21.924;2023-03-30T07:42:07;4.97;;;2.40;;
52816;SDS011;38687;43.330;21.924;2023-03-30T07:44:33;6.03;;;3.50;;
52816;SDS011;38687;43.330;21.924;2023-03-30T07:46:58;7.00;;;3.80;;
52816;SDS011;38687;43.330;21.924;2023-03-30T07:49:24;4.80;;;2.63;;
52816;SDS011;38687;43.330;21.924;2023-03-30T07:51:51;3.78;;;2.63;;
52816;SDS011;38687;43.330;21.924;2023-03-30T07:54:17;3.20;;;2.15;;
52816;SDS011;38687;43.330;21.924;2023-03-30T07:56:42;3.85;;;2.78;;
52816;SDS011;38687;43.330;21.924;2023-03-30T07:59:08;6.63;;;3.10;;
52816;SDS011;38687;43.330;21.924;2023-03-30T08:01:37;4.78;;;3.63;;
52816;SDS011;38687;43.330;21.924;2023-03-30T08:04:03;4.88;;;3.50;;
52816;SDS011;38687;43.330;21.924;2023-03-30T08:06:28;6.47;;;3.58;;
52816;SDS011;38687;43.330;21.924;2023-03-30T08:08:54;5.10;;;3.28;;
52816;SDS011;38687;43.330;21.924;2023-03-30T08:11:20;9.40;;;5.47;;
52816;SDS011;38687;43.330;21.924;2023-03-30T08:13:46;5.75;;;3.15;;
52816;SDS011;38687;43.330;21.924;2023-03-30T08:16:11;3.88;;;2.83;;
52816;SDS011;38687;43.330;21.924;2023-03-30T08:18:37;7.90;;;2.92;;
52816;SDS011;38687;43.330;21.924;2023-03-30T08:21:05;5.43;;;2.75;;
52816;SDS011;38687;43.330;21.924;2023-03-30T08:23:31;5.90;;;3.55;;
52816;SDS011;38687;43.330;21.924;2023-03-30T08:25:57;5.15;;;2.80;;
52816;SDS011;38687;43.330;21.924;2023-03-30T08:28:23;7.45;;;3.92;;
52816;SDS011;38687;43.330;21.924;2023-03-30T08:30:49;2.80;;;2.13;;
52816;SDS011;38687;43.330;21.924;2023-03-30T08:33:14;5.72;;;3.10;;
52816;SDS011;38687;43.330;21.924;2023-03-30T08:35:42;8.73;;;4.20;;
52816;SDS011;38687;43.330;21.924;2023-03-30T08:38:08;6.13;;;3.53;;
52816;SDS011;38687;43.330;21.924;2023-03-30T08:40:37;5.00;;;3.38;;
52816;SDS011;38687;43.330;21.924;2023-03-30T08:45:53;6.60;;;3.85;;
52816;SDS011;38687;43.330;21.924;2023-03-30T08:48:19;8.50;;;4.45;;
52816;SDS011;38687;43.330;21.924;2023-03-30T08:50:49;6.07;;;4.05;;
52816;SDS011;38687;43.330;21.924;2023-03-30T08:53:28;5.93;;;4.18;;
52816;SDS011;38687;43.330;21.924;2023-03-30T08:58:25;5.93;;;4.15;;
52816;SDS011;38687;43.330;21.924;2023-03-30T09:09:43;9.27;;;6.00;;
52816;SDS011;38687;43.330;21.924;2023-03-30T09:12:16;11.70;;;6.20;;
52816;SDS011;38687;43.330;21.924;2023-03-30T09:14:53;7.97;;;5.60;;
52816;SDS011;38687;43.330;21.924;2023-03-30T09:17:25;12.13;;;6.40;;
52816;SDS011;38687;43.330;21.924;2023-03-30T09:20:14;7.38;;;5.07;;
52816;SDS011;38687;43.330;21.924;2023-03-30T09:22:46;10.73;;;6.20;;
52816;SDS011;38687;43.330;21.924;2023-03-30T09:25:14;8.95;;;5.68;;
52816;SDS011;38687;43.330;21.924;2023-03-30T09:30:14;8.77;;;6.28;;
52816;SDS011;38687;43.330;21.924;2023-03-30T09:32:48;12.10;;;6.57;;
52816;SDS011;38687;43.330;21.924;2023-03-30T09:35:23;9.80;;;6.40;;
52816;SDS011;38687;43.330;21.924;2023-03-30T09:37:50;8.80;;;6.20;;
52816;SDS011;38687;43.330;21.924;2023-03-30T09:43:01;9.43;;;7.15;;
52816;SDS011;38687;43.330;21.924;2023-03-30T09:45:32;8.80;;;6.47;;
52816;SDS011;38687;43.330;21.924;2023-03-30T09:48:04;6.95;;;4.85;;
52816;SDS011;38687;43.330;21.924;2023-03-30T09:50:32;6.20;;;3.75;;
52816;SDS011;38687;43.330;21.924;2023-03-30T09:53:06;5.70;;;3.72;;
52816;SDS011;38687;43.330;21.924;2023-03-30T09:55:53;7.55;;;4.95;;
52816;SDS011;38687;43.330;21.924;2023-03-30T10:01:00;11.70;;;6.60;;
52816;SDS011;38687;43.330;21.924;2023-03-30T10:03:27;5.82;;;3.95;;
52816;SDS011;38687;43.330;21.924;2023-03-30T10:06:26;5.35;;;3.90;;
52816;SDS011;38687;43.330;21.924;2023-03-30T10:08:54;5.47;;;4.22;;
52816;SDS011;38687;43.330;21.924;2023-03-30T10:14:35;5.37;;;3.13;;
52816;SDS011;38687;43.330;21.924;2023-03-30T10:17:01;6.10;;;2.90;;
52816;SDS011;38687;43.330;21.924;2023-03-30T10:19:28;3.92;;;1.85;;
52816;SDS011;38687;43.330;21.924;2023-03-30T10:21:55;9.40;;;5.32;;
52816;SDS011;38687;43.330;21.924;2023-03-30T10:26:54;17.05;;;8.35;;
52816;SDS011;38687;43.330;21.924;2023-03-30T10:29:22;11.43;;;6.60;;
52816;SDS011;38687;43.330;21.924;2023-03-30T10:31:50;3.38;;;1.60;;
52816;SDS011;38687;43.330;21.924;2023-03-30T10:34:22;4.05;;;1.92;;
52816;SDS011;38687;43.330;21.924;2023-03-30T10:36:55;5.03;;;2.92;;
52816;SDS011;38687;43.330;21.924;2023-03-30T10:39:27;3.38;;;2.65;;
52816;SDS011;38687;43.330;21.924;2023-03-30T10:41:54;7.50;;;2.95;;
52816;SDS011;38687;43.330;21.924;2023-03-30T10:45:03;4.10;;;2.05;;
52816;SDS011;38687;43.330;21.924;2023-03-30T10:47:17;2.88;;;2.40;;
52816;SDS011;38687;43.330;21.924;2023-03-30T10:52:50;4.53;;;2.33;;
52816;SDS011;38687;43.330;21.924;2023-03-30T11:03:55;8.63;;;3.85;;
52816;SDS011;38687;43.330;21.924;2023-03-30T11:06:29;3.95;;;2.70;;
52816;SDS011;38687;43.330;21.924;2023-03-30T11:08:59;4.18;;;2.38;;
52816;SDS011;38687;43.330;21.924;2023-03-30T11:11:37;4.70;;;2.25;;
52816;SDS011;38687;43.330;21.924;2023-03-30T11:14:06;5.32;;;3.03;;
52816;SDS011;38687;43.330;21.924;2023-03-30T11:16:39;3.80;;;1.92;;
52816;SDS011;38687;43.330;21.924;2023-03-30T11:19:31;2.95;;;2.00;;
52816;SDS011;38687;43.330;21.924;2023-03-30T11:22:06;4.28;;;2.45;;
52816;SDS011;38687;43.330;21.924;2023-03-30T11:24:40;3.42;;;2.13;;
52816;SDS011;38687;43.330;21.924;2023-03-30T11:27:12;15.43;;;8.95;;
52816;SDS011;38687;43.330;21.924;2023-03-30T11:39:55;5.63;;;3.10;;
52816;SDS011;38687;43.330;21.924;2023-03-30T11:42:25;1.33;;;1.05;;
52816;SDS011;38687;43.330;21.924;2023-03-30T11:44:54;2.15;;;1.40;;
52816;SDS011;38687;43.330;21.924;2023-03-30T11:55:45;1.90;;;1.30;;
52816;SDS011;38687;43.330;21.924;2023-03-30T11:58:25;2.67;;;1.98;;
52816;SDS011;38687;43.330;21.924;2023-03-30T12:03:34;2.53;;;1.65;;
52816;SDS011;38687;43.330;21.924;2023-03-30T12:11:54;6.20;;;3.72;;
52816;SDS011;38687;43.330;21.924;2023-03-30T12:17:29;2.53;;;1.33;;
52816;SDS011;38687;43.330;21.924;2023-03-30T12:22:35;3.50;;;2.42;;
52816;SDS011;38687;43.330;21.924;2023-03-30T12:25:27;6.50;;;3.35;;
52816;SDS011;38687;43.330;21.924;2023-03-30T12:30:24;7.38;;;3.72;;
52816;SDS011;38687;43.330;21.924;2023-03-30T12:32:59;3.70;;;1.60;;
52816;SDS011;38687;43.330;21.924;2023-03-30T12:38:19;3.50;;;1.52;;
52816;SDS011;38687;43.330;21.924;2023-03-30T12:40:51;3.00;;;1.85;;
52816;SDS011;38687;43.330;21.924;2023-03-30T12:51:44;6.97;;;3.30;;
52816;SDS011;38687;43.330;21.924;2023-03-30T12:54:38;5.10;;;3.85;;
52816;SDS011;38687;43.330;21.924;2023-03-30T13:05:46;6.88;;;3.70;;
52816;SDS011;38687;43.330;21.924;2023-03-30T13:11:10;6.38;;;4.13;;
52816;SDS011;38687;43.330;21.924;2023-03-30T13:13:50;3.25;;;1.50;;
52816;SDS011;38687;43.330;21.924;2023-03-30T13:18:59;3.22;;;1.73;;
52816;SDS011;38687;43.330;21.924;2023-03-30T13:21:47;3.22;;;1.63;;
52816;SDS011;38687;43.330;21.924;2023-03-30T13:24:21;2.42;;;2.03;;
52816;SDS011;38687;43.330;21.924;2023-03-30T13:29:37;2.60;;;1.10;;
52816;SDS011;38687;43.330;21.924;2023-03-30T13:40:25;4.85;;;2.67;;
52816;SDS011;38687;43.330;21.924;2023-03-30T13:45:40;3.38;;;2.22;;
52816;SDS011;38687;43.330;21.924;2023-03-30T13:51:12;3.80;;;2.55;;
52816;SDS011;38687;43.330;21.924;2023-03-30T13:53:41;3.10;;;1.92;;
52816;SDS011;38687;43.330;21.924;2023-03-30T13:56:10;5.20;;;3.33;;
52816;SDS011;38687;43.330;21.924;2023-03-30T13:58:36;2.97;;;2.00;;
52816;SDS011;38687;43.330;21.924;2023-03-30T14:01:07;3.15;;;2.03;;
52816;SDS011;38687;43.330;21.924;2023-03-30T14:08:30;5.85;;;3.55;;
52816;SDS011;38687;43.330;21.924;2023-03-30T14:10:58;5.10;;;2.13;;
52816;SDS011;38687;43.330;21.924;2023-03-30T14:13:24;4.03;;;2.60;;
52816;SDS011;38687;43.330;21.924;2023-03-30T14:15:50;4.88;;;2.78;;
52816;SDS011;38687;43.330;21.924;2023-03-30T14:18:24;6.38;;;2.60;;
52816;SDS011;38687;43.330;21.924;2023-03-30T14:20:51;5.25;;;2.63;;
52816;SDS011;38687;43.330;21.924;2023-03-30T14:23:41;3.40;;;1.80;;
52816;SDS011;38687;43.330;21.924;2023-03-30T14:26:20;4.13;;;3.22;;
52816;SDS011;38687;43.330;21.924;2023-03-30T14:28:49;5.00;;;2.05;;
52816;SDS011;38687;43.330;21.924;2023-03-30T14:31:19;2.97;;;1.88;;
52816;SDS011;38687;43.330;21.924;2023-03-30T14:33:45;2.28;;;1.80;;
52816;SDS011;38687;43.330;21.924;2023-03-30T14:36:12;3.63;;;2.72;;
52816;SDS011;38687;43.330;21.924;2023-03-30T14:38:40;6.40;;;2.80;;
52816;SDS011;38687;43.330;21.924;2023-03-30T14:41:09;5.05;;;3.08;;
52816;SDS011;38687;43.330;21.924;2023-03-30T14:43:57;3.60;;;2.03;;
52816;SDS011;38687;43.330;21.924;2023-03-30T14:46:26;2.80;;;2.08;;
52816;SDS011;38687;43.330;21.924;2023-03-30T14:49:20;4.05;;;2.22;;
52816;SDS011;38687;43.330;21.924;2023-03-30T14:51:48;5.07;;;2.75;;
52816;SDS011;38687;43.330;21.924;2023-03-30T14:54:16;8.10;;;5.32;;
52816;SDS011;38687;43.330;21.924;2023-03-30T14:56:44;7.38;;;4.43;;
52816;SDS011;38687;43.330;21.924;2023-03-30T14:59:10;5.10;;;3.15;;
52816;SDS011;38687;43.330;21.924;2023-03-30T15:01:37;3.80;;;2.50;;
52816;SDS011;38687;43.330;21.924;2023-03-30T15:04:07;3.40;;;2.22;;
52816;SDS011;38687;43.330;21.924;2023-03-30T15:06:35;5.03;;;2.58;;
52816;SDS011;38687;43.330;21.924;2023-03-30T15:09:01;5.32;;;2.80;;
52816;SDS011;38687;43.330;21.924;2023-03-30T15:11:28;5.07;;;3.22;;
52816;SDS011;38687;43.330;21.924;2023-03-30T15:13:57;9.73;;;5.35;;
52816;SDS011;38687;43.330;21.924;2023-03-30T15:16:27;6.68;;;4.72;;
52816;SDS011;38687;43.330;21.924;2023-03-30T15:19:00;5.30;;;2.85;;
52816;SDS011;38687;43.330;21.924;2023-03-30T15:21:39;6.83;;;5.23;;
52816;SDS011;38687;43.330;21.924;2023-03-30T15:24:05;8.10;;;7.25;;
52816;SDS011;38687;43.330;21.924;2023-03-30T15:26:32;11.85;;;7.75;;
52816;SDS011;38687;43.330;21.924;2023-03-30T15:28:58;24.23;;;15.73;;
52816;SDS011;38687;43.330;21.924;2023-03-30T15:31:25;13.25;;;8.80;;
52816;SDS011;38687;43.330;21.924;2023-03-30T15:33:55;16.27;;;10.70;;
52816;SDS011;38687;43.330;21.924;2023-03-30T15:38:57;17.52;;;11.32;;
52816;SDS011;38687;43.330;21.924;2023-03-30T15:41:23;16.27;;;10.05;;
52816;SDS011;38687;43.330;21.924;2023-03-30T15:44:16;14.77;;;9.93;;
52816;SDS011;38687;43.330;21.924;2023-03-30T15:46:43;12.57;;;7.30;;
52816;SDS011;38687;43.330;21.924;2023-03-30T15:49:13;12.40;;;8.27;;
52816;SDS011;38687;43.330;21.924;2023-03-30T15:51:47;10.10;;;5.40;;
52816;SDS011;38687;43.330;21.924;2023-03-30T15:54:37;21.20;;;10.83;;
52816;SDS011;38687;43.330;21.924;2023-03-30T15:59:39;43.25;;;21.73;;
52816;SDS011;38687;43.330;21.924;2023-03-30T16:02:14;50.15;;;31.80;;
52816;SDS011;38687;43.330;21.924;2023-03-30T16:04:40;31.20;;;18.38;;
52816;SDS011;38687;43.330;21.924;2023-03-30T16:07:16;25.38;;;15.32;;
52816;SDS011;38687;43.330;21.924;2023-03-30T16:09:43;27.95;;;17.52;;
52816;SDS011;38687;43.330;21.924;2023-03-30T16:12:10;36.08;;;20.27;;
52816;SDS011;38687;43.330;21.924;2023-03-30T16:14:37;29.27;;;16.63;;
52816;SDS011;38687;43.330;21.924;2023-03-30T16:17:03;35.90;;;23.77;;
52816;SDS011;38687;43.330;21.924;2023-03-30T16:19:28;34.30;;;23.15;;
52816;SDS011;38687;43.330;21.924;2023-03-30T16:21:54;33.83;;;22.15;;
52816;SDS011;38687;43.330;21.924;2023-03-30T16:24:19;30.98;;;19.15;;
52816;SDS011;38687;43.330;21.924;2023-03-30T16:26:45;26.05;;;16.05;;
52816;SDS011;38687;43.330;21.924;2023-03-30T16:29:17;26.73;;;16.67;;
52816;SDS011;38687;43.330;21.924;2023-03-30T16:31:45;24.67;;;16.50;;
52816;SDS011;38687;43.330;21.924;2023-03-30T16:34:11;26.88;;;16.23;;
52816;SDS011;38687;43.330;21.924;2023-03-30T16:36:36;25.55;;;18.10;;
52816;SDS011;38687;43.330;21.924;2023-03-30T16:39:02;35.03;;;20.27;;
52816;SDS011;38687;43.330;21.924;2023-03-30T16:41:29;68.65;;;36.30;;
52816;SDS011;38687;43.330;21.924;2023-03-30T16:43:55;50.72;;;27.38;;
52816;SDS011;38687;43.330;21.924;2023-03-30T16:46:20;37.47;;;23.58;;
52816;SDS011;38687;43.330;21.924;2023-03-30T16:48:46;34.42;;;21.60;;
52816;SDS011;38687;43.330;21.924;2023-03-30T16:51:12;29.33;;;20.10;;
52816;SDS011;38687;43.330;21.924;2023-03-30T16:53:39;26.92;;;17.40;;
52816;SDS011;38687;43.330;21.924;2023-03-30T16:56:05;27.27;;;17.65;;
52816;SDS011;38687;43.330;21.924;2023-03-30T16:58:31;27.73;;;18.45;;
52816;SDS011;38687;43.330;21.924;2023-03-30T17:00:56;29.95;;;19.05;;
52816;SDS011;38687;43.330;21.924;2023-03-30T17:03:28;49.70;;;30.67;;
52816;SDS011;38687;43.330;21.924;2023-03-30T17:05:53;45.50;;;28.88;;
52816;SDS011;38687;43.330;21.924;2023-03-30T17:08:23;53.90;;;33.42;;
52816;SDS011;38687;43.330;21.924;2023-03-30T17:10:51;55.75;;;33.75;;
52816;SDS011;38687;43.330;21.924;2023-03-30T17:13:17;56.55;;;36.50;;
52816;SDS011;38687;43.330;21.924;2023-03-30T17:15:43;60.60;;;39.78;;
52816;SDS011;38687;43.330;21.924;2023-03-30T17:18:12;68.90;;;45.20;;
52816;SDS011;38687;43.330;21.924;2023-03-30T17:20:42;64.70;;;43.33;;
52816;SDS011;38687;43.330;21.924;2023-03-30T17:23:09;46.22;;;32.95;;
52816;SDS011;38687;43.330;21.924;2023-03-30T17:25:35;32.95;;;23.80;;
52816;SDS011;38687;43.330;21.924;2023-03-30T17:28:03;34.05;;;21.17;;